KCNK

Blosser Municipal Airport

Concordia, Kansas, USA
METAR KCNK 230455Z AUTO 00000KT 10SM CLR 11/07 A3022 RMK AO2 SLP230 T01110072
Observed Flight Rules
Oct-23 @ 04:55 UTC (33 minutes ago) Visual Flight Rules
Visibility Clouds
10 miles
  • Clear skies
Temperatures Readings
Current 11°C / 52°F
Dewpoint 7°C / 45°F
Humidity 77%
Altimeter 30.22" Hg
Pressure 1023 hPa
Elevation 447
METAR KCNK 230455Z AUTO 00000KT 10SM CLR 11/07 A3022 RMK AO2 SLP230 T01110072
Observed Flight Rules
Oct-23 @ 04:55 UTC
(33 minutes ago)
VFR
Clouds
  • Clear skies
Temperature Dewpoint
11°C / 52°F 7°C / 45°F
Humidity Altimeter Pressure
77% 30.22" Hg 1023 hPa